sensor_id;sensor_type;location;lat;lon;timestamp;pressure;altitude;pressure_sealevel;temperature;humidity
20620;BME280;10469;42.720;23.252;2024-02-14T01:33:39;94667.88;;;5.76;100.00
20620;BME280;10469;42.720;23.252;2024-02-14T01:36:05;94667.06;;;5.76;100.00
20620;BME280;10469;42.720;23.252;2024-02-14T01:38:31;94669.88;;;5.88;100.00
20620;BME280;10469;42.720;23.252;2024-02-14T01:41:02;94665.38;;;5.82;100.00
20620;BME280;10469;42.720;23.252;2024-02-14T01:43:28;94655.78;;;5.81;100.00
20620;BME280;10469;42.720;23.252;2024-02-14T01:45:56;94655.97;;;5.86;100.00
20620;BME280;10469;42.720;23.252;2024-02-14T01:48:28;94645.56;;;5.77;100.00
20620;BME280;10469;42.720;23.252;2024-02-14T01:50:54;94659.31;;;5.68;100.00
20620;BME280;10469;42.720;23.252;2024-02-14T01:53:20;94650.69;;;5.72;100.00
20620;BME280;10469;42.720;23.252;2024-02-14T01:55:45;94662.38;;;5.71;100.00
20620;BME280;10469;42.720;23.252;2024-02-14T01:58:11;94658.75;;;5.59;100.00
20620;BME280;10469;42.720;23.252;2024-02-14T02:00:38;94660.19;;;5.62;100.00
20620;BME280;10469;42.720;23.252;2024-02-14T02:03:04;94665.38;;;5.82;100.00
20620;BME280;10469;42.720;23.252;2024-02-14T02:05:29;94664.34;;;5.83;100.00
20620;BME280;10469;42.720;23.252;2024-02-14T02:07:55;94655.22;;;5.72;100.00
20620;BME280;10469;42.720;23.252;2024-02-14T02:10:21;94667.53;;;5.66;100.00
20620;BME280;10469;42.720;23.252;2024-02-14T02:12:48;94662.00;;;5.61;100.00
20620;BME280;10469;42.720;23.252;2024-02-14T02:15:16;94658.91;;;5.71;100.00
20620;BME280;10469;42.720;23.252;2024-02-14T02:17:42;94664.22;;;5.71;100.00
20620;BME280;10469;42.720;23.252;2024-02-14T02:20:08;94655.69;;;5.56;100.00
20620;BME280;10469;42.720;23.252;2024-02-14T02:22:34;94662.84;;;5.55;100.00
20620;BME280;10469;42.720;23.252;2024-02-14T02:25:03;94661.22;;;5.54;100.00
20620;BME280;10469;42.720;23.252;2024-02-14T02:27:33;94673.66;;;5.60;100.00
20620;BME280;10469;42.720;23.252;2024-02-14T02:30:00;94674.06;;;5.70;100.00
20620;BME280;10469;42.720;23.252;2024-02-14T02:32:26;94682.44;;;5.67;100.00
20620;BME280;10469;42.720;23.252;2024-02-14T02:34:52;94683.63;;;5.78;100.00
20620;BME280;10469;42.720;23.252;2024-02-14T02:37:18;94684.19;;;5.87;100.00
20620;BME280;10469;42.720;23.252;2024-02-14T02:39:44;94691.47;;;5.66;100.00
20620;BME280;10469;42.720;23.252;2024-02-14T02:42:10;94681.66;;;5.60;100.00
20620;BME280;10469;42.720;23.252;2024-02-14T02:44:38;94695.97;;;5.66;100.00
20620;BME280;10469;42.720;23.252;2024-02-14T02:47:04;94697.38;;;5.68;100.00
20620;BME280;10469;42.720;23.252;2024-02-14T02:49:30;94699.84;;;5.63;100.00
20620;BME280;10469;42.720;23.252;2024-02-14T02:51:55;94688.19;;;5.64;100.00
20620;BME280;10469;42.720;23.252;2024-02-14T02:54:21;94688.00;;;5.59;100.00
20620;BME280;10469;42.720;23.252;2024-02-14T02:56:49;94699.22;;;5.61;100.00
20620;BME280;10469;42.720;23.252;2024-02-14T02:59:15;94706.03;;;5.57;100.00
20620;BME280;10469;42.720;23.252;2024-02-14T03:01:42;94702.69;;;5.68;100.00
20620;BME280;10469;42.720;23.252;2024-02-14T03:04:07;94709.84;;;5.74;100.00
20620;BME280;10469;42.720;23.252;2024-02-14T03:06:33;94713.75;;;5.65;100.00
20620;BME280;10469;42.720;23.252;2024-02-14T03:08:59;94712.94;;;5.65;100.00
20620;BME280;10469;42.720;23.252;2024-02-14T03:11:25;94715.63;;;5.51;100.00
20620;BME280;10469;42.720;23.252;2024-02-14T03:13:52;94711.31;;;5.70;100.00
20620;BME280;10469;42.720;23.252;2024-02-14T03:16:17;94713.56;;;5.67;100.00
20620;BME280;10469;42.720;23.252;2024-02-14T03:18:44;94723.75;;;5.70;100.00
20620;BME280;10469;42.720;23.252;2024-02-14T03:21:10;94715.81;;;5.63;100.00
20620;BME280;10469;42.720;23.252;2024-02-14T03:23:37;94720.28;;;5.69;100.00
20620;BME280;10469;42.720;23.252;2024-02-14T03:26:03;94721.94;;;5.70;100.00
20620;BME280;10469;42.720;23.252;2024-02-14T03:28:32;94733.22;;;5.59;100.00
20620;BME280;10469;42.720;23.252;2024-02-14T03:30:58;94735.25;;;5.64;100.00
20620;BME280;10469;42.720;23.252;2024-02-14T03:33:24;94745.88;;;5.70;100.00
20620;BME280;10469;42.720;23.252;2024-02-14T03:35:50;94748.72;;;5.75;100.00
20620;BME280;10469;42.720;23.252;2024-02-14T03:38:33;94747.50;;;5.71;100.00
20620;BME280;10469;42.720;23.252;2024-02-14T03:40:59;94751.44;;;5.62;100.00
20620;BME280;10469;42.720;23.252;2024-02-14T03:43:24;94751.84;;;5.66;100.00
20620;BME280;10469;42.720;23.252;2024-02-14T03:45:50;94751.06;;;5.45;100.00
20620;BME280;10469;42.720;23.252;2024-02-14T03:48:20;94755.16;;;5.41;100.00
20620;BME280;10469;42.720;23.252;2024-02-14T03:50:46;94754.94;;;5.49;100.00
20620;BME280;10469;42.720;23.252;2024-02-14T03:53:11;94746.16;;;5.49;100.00
20620;BME280;10469;42.720;23.252;2024-02-14T03:55:37;94758.00;;;5.53;100.00
20620;BME280;10469;42.720;23.252;2024-02-14T03:58:03;94762.53;;;5.33;100.00
20620;BME280;10469;42.720;23.252;2024-02-14T04:00:30;94760.28;;;5.29;100.00
20620;BME280;10469;42.720;23.252;2024-02-14T04:02:56;94767.00;;;5.45;100.00
20620;BME280;10469;42.720;23.252;2024-02-14T04:05:27;94756.78;;;5.49;100.00
20620;BME280;10469;42.720;23.252;2024-02-14T04:07:54;94764.34;;;5.39;100.00
20620;BME280;10469;42.720;23.252;2024-02-14T04:10:20;94766.63;;;5.22;100.00
20620;BME280;10469;42.720;23.252;2024-02-14T04:12:46;94762.75;;;5.31;100.00
20620;BME280;10469;42.720;23.252;2024-02-14T04:15:12;94775.63;;;5.41;100.00
20620;BME280;10469;42.720;23.252;2024-02-14T04:17:39;94752.75;;;5.07;100.00
20620;BME280;10469;42.720;23.252;2024-02-14T04:20:05;94773.34;;;5.38;100.00
20620;BME280;10469;42.720;23.252;2024-02-14T04:22:31;94777.66;;;5.32;100.00
20620;BME280;10469;42.720;23.252;2024-02-14T04:24:57;94773.78;;;5.21;100.00
20620;BME280;10469;42.720;23.252;2024-02-14T04:27:22;94761.53;;;5.07;100.00
20620;BME280;10469;42.720;23.252;2024-02-14T04:29:48;94780.75;;;5.36;100.00
20620;BME280;10469;42.720;23.252;2024-02-14T04:32:14;94788.72;;;5.22;100.00
20620;BME280;10469;42.720;23.252;2024-02-14T04:34:40;94802.00;;;5.09;100.00
20620;BME280;10469;42.720;23.252;2024-02-14T04:37:07;94786.25;;;5.27;100.00
20620;BME280;10469;42.720;23.252;2024-02-14T04:39:36;94790.34;;;5.17;100.00
20620;BME280;10469;42.720;23.252;2024-02-14T04:42:01;94795.69;;;5.10;100.00
20620;BME280;10469;42.720;23.252;2024-02-14T04:44:31;94789.94;;;5.13;100.00
20620;BME280;10469;42.720;23.252;2024-02-14T04:46:59;94801.59;;;5.12;100.00
20620;BME280;10469;42.720;23.252;2024-02-14T04:49:26;94798.13;;;5.18;100.00
20620;BME280;10469;42.720;23.252;2024-02-14T04:51:51;94802.84;;;5.23;100.00
20620;BME280;10469;42.720;23.252;2024-02-14T04:54:18;94810.78;;;5.03;100.00
20620;BME280;10469;42.720;23.252;2024-02-14T04:56:44;94811.41;;;5.05;100.00
20620;BME280;10469;42.720;23.252;2024-02-14T04:59:11;94808.97;;;5.10;100.00
20620;BME280;10469;42.720;23.252;2024-02-14T05:01:36;94817.94;;;5.09;100.00
20620;BME280;10469;42.720;23.252;2024-02-14T05:04:02;94813.44;;;5.03;100.00
20620;BME280;10469;42.720;23.252;2024-02-14T05:06:29;94818.16;;;5.14;100.00
20620;BME280;10469;42.720;23.252;2024-02-14T05:08:54;94818.56;;;5.18;100.00
20620;BME280;10469;42.720;23.252;2024-02-14T05:11:20;94820.41;;;5.11;100.00
20620;BME280;10469;42.720;23.252;2024-02-14T05:13:46;94822.44;;;5.22;100.00
20620;BME280;10469;42.720;23.252;2024-02-14T05:16:12;94817.53;;;4.99;100.00
20620;BME280;10469;42.720;23.252;2024-02-14T05:18:38;94837.56;;;5.08;100.00
20620;BME280;10469;42.720;23.252;2024-02-14T05:21:07;94829.81;;;4.93;100.00
20620;BME280;10469;42.720;23.252;2024-02-14T05:23:36;94837.38;;;5.03;100.00
20620;BME280;10469;42.720;23.252;2024-02-14T05:26:05;94847.59;;;5.13;100.00
20620;BME280;10469;42.720;23.252;2024-02-14T05:28:31;94850.06;;;5.14;100.00
20620;BME280;10469;42.720;23.252;2024-02-14T05:30:58;94853.53;;;5.21;100.00
20620;BME280;10469;42.720;23.252;2024-02-14T05:33:24;94846.19;;;5.23;100.00
20620;BME280;10469;42.720;23.252;2024-02-14T05:35:50;94843.91;;;5.14;100.00
20620;BME280;10469;42.720;23.252;2024-02-14T05:38:16;94851.31;;;5.18;100.00
20620;BME280;10469;42.720;23.252;2024-02-14T05:40:48;94850.88;;;5.01;100.00
20620;BME280;10469;42.720;23.252;2024-02-14T05:43:14;94860.25;;;4.97;100.00
20620;BME280;10469;42.720;23.252;2024-02-14T05:45:40;94871.09;;;5.09;100.00
20620;BME280;10469;42.720;23.252;2024-02-14T05:48:07;94875.00;;;5.07;100.00
20620;BME280;10469;42.720;23.252;2024-02-14T05:50:33;94869.84;;;4.92;100.00
20620;BME280;10469;42.720;23.252;2024-02-14T05:52:59;94873.91;;;4.88;100.00
20620;BME280;10469;42.720;23.252;2024-02-14T05:55:25;94883.13;;;4.85;100.00
20620;BME280;10469;42.720;23.252;2024-02-14T05:57:53;94876.38;;;4.83;100.00
20620;BME280;10469;42.720;23.252;2024-02-14T06:00:20;94890.72;;;5.08;100.00
20620;BME280;10469;42.720;23.252;2024-02-14T06:02:46;94884.81;;;5.26;100.00
20620;BME280;10469;42.720;23.252;2024-02-14T06:05:13;94896.25;;;5.13;100.00
20620;BME280;10469;42.720;23.252;2024-02-14T06:07:39;94902.00;;;5.23;100.00
20620;BME280;10469;42.720;23.252;2024-02-14T06:10:06;94906.09;;;5.19;100.00
20620;BME280;10469;42.720;23.252;2024-02-14T06:12:33;94904.63;;;5.03;100.00
20620;BME280;10469;42.720;23.252;2024-02-14T06:14:59;94908.91;;;5.04;100.00
20620;BME280;10469;42.720;23.252;2024-02-14T06:17:29;94911.56;;;4.98;100.00
20620;BME280;10469;42.720;23.252;2024-02-14T15:32:28;95118.09;;;6.26;100.00
20620;BME280;10469;42.720;23.252;2024-02-14T15:35:12;95129.34;;;6.22;100.00
20620;BME280;10469;42.720;23.252;2024-02-14T15:37:38;95143.28;;;6.31;100.00
20620;BME280;10469;42.720;23.252;2024-02-14T15:40:04;95139.16;;;6.21;100.00
20620;BME280;10469;42.720;23.252;2024-02-14T15:42:31;95144.47;;;6.08;100.00
20620;BME280;10469;42.720;23.252;2024-02-14T15:44:57;95162.50;;;6.19;100.00
20620;BME280;10469;42.720;23.252;2024-02-14T15:47:22;95163.72;;;6.10;100.00
20620;BME280;10469;42.720;23.252;2024-02-14T15:49:48;95164.97;;;6.14;100.00
20620;BME280;10469;42.720;23.252;2024-02-14T15:52:14;95167.63;;;6.14;100.00
20620;BME280;10469;42.720;23.252;2024-02-14T15:54:39;95174.16;;;6.12;100.00
20620;BME280;10469;42.720;23.252;2024-02-14T15:57:10;95163.72;;;6.17;100.00
20620;BME280;10469;42.720;23.252;2024-02-14T15:59:38;95161.47;;;6.00;100.00
20620;BME280;10469;42.720;23.252;2024-02-14T16:02:06;95187.06;;;6.08;100.00
20620;BME280;10469;42.720;23.252;2024-02-14T16:04:31;95166.97;;;5.92;100.00
20620;BME280;10469;42.720;23.252;2024-02-14T16:06:58;95185.81;;;6.04;100.00
20620;BME280;10469;42.720;23.252;2024-02-14T16:09:23;95179.06;;;6.08;100.00
20620;BME280;10469;42.720;23.252;2024-02-14T16:11:49;95185.84;;;6.11;100.00
20620;BME280;10469;42.720;23.252;2024-02-14T16:14:16;95201.34;;;5.94;100.00
20620;BME280;10469;42.720;23.252;2024-02-14T16:16:42;95201.72;;;5.91;100.00
20620;BME280;10469;42.720;23.252;2024-02-14T16:19:08;95201.72;;;5.84;100.00
20620;BME280;10469;42.720;23.252;2024-02-14T16:21:34;95208.25;;;5.82;100.00
20620;BME280;10469;42.720;23.252;2024-02-14T16:24:04;95197.19;;;5.85;100.00
20620;BME280;10469;42.720;23.252;2024-02-14T16:26:30;95212.56;;;5.89;100.00
20620;BME280;10469;42.720;23.252;2024-02-14T16:28:57;95216.44;;;5.87;100.00
20620;BME280;10469;42.720;23.252;2024-02-14T16:31:23;95224.31;;;6.01;100.00
20620;BME280;10469;42.720;23.252;2024-02-14T16:33:50;95225.53;;;5.99;100.00
20620;BME280;10469;42.720;23.252;2024-02-14T16:36:16;95230.34;;;5.82;100.00
20620;BME280;10469;42.720;23.252;2024-02-14T16:38:51;95230.75;;;5.79;100.00
20620;BME280;10469;42.720;23.252;2024-02-14T16:41:17;95230.03;;;5.92;100.00
20620;BME280;10469;42.720;23.252;2024-02-14T16:43:47;95239.88;;;5.98;100.00
20620;BME280;10469;42.720;23.252;2024-02-14T16:46:13;95245.88;;;5.72;100.00
20620;BME280;10469;42.720;23.252;2024-02-14T16:48:43;95243.13;;;5.93;100.00
20620;BME280;10469;42.720;23.252;2024-02-14T16:51:08;95235.44;;;5.77;100.00
20620;BME280;10469;42.720;23.252;2024-02-14T16:53:39;95243.00;;;5.73;100.00
20620;BME280;10469;42.720;23.252;2024-02-14T16:56:06;95241.34;;;5.72;100.00
20620;BME280;10469;42.720;23.252;2024-02-14T16:58:33;95244.25;;;5.77;100.00
20620;BME280;10469;42.720;23.252;2024-02-14T17:01:00;95245.81;;;5.65;100.00
20620;BME280;10469;42.720;23.252;2024-02-14T17:03:25;95245.00;;;5.65;100.00
20620;BME280;10469;42.720;23.252;2024-02-14T17:05:51;95247.44;;;5.60;100.00
20620;BME280;10469;42.720;23.252;2024-02-14T17:08:18;95246.22;;;5.62;100.00
20620;BME280;10469;42.720;23.252;2024-02-14T17:10:43;95252.03;;;5.79;100.00
20620;BME280;10469;42.720;23.252;2024-02-14T17:13:09;95251.19;;;5.72;100.00
20620;BME280;10469;42.720;23.252;2024-02-14T17:15:38;95254.88;;;5.77;100.00
20620;BME280;10469;42.720;23.252;2024-02-14T17:18:04;95255.91;;;5.76;100.00
20620;BME280;10469;42.720;23.252;2024-02-14T17:20:30;95266.13;;;5.73;100.00
20620;BME280;10469;42.720;23.252;2024-02-14T17:22:57;95266.94;;;5.73;100.00
20620;BME280;10469;42.720;23.252;2024-02-14T17:25:23;95262.03;;;5.70;100.00
20620;BME280;10469;42.720;23.252;2024-02-14T17:27:50;95253.41;;;5.68;100.00
20620;BME280;10469;42.720;23.252;2024-02-14T17:30:16;95265.31;;;5.72;100.00
20620;BME280;10469;42.720;23.252;2024-02-14T17:32:45;95263.91;;;6.24;100.00
20620;BME280;10469;42.720;23.252;2024-02-14T17:35:14;95266.25;;;5.93;100.00
20620;BME280;10469;42.720;23.252;2024-02-14T17:37:40;95266.41;;;5.91;100.00
20620;BME280;10469;42.720;23.252;2024-02-14T17:40:10;95275.00;;;5.87;100.00
20620;BME280;10469;42.720;23.252;2024-02-14T17:42:36;95269.94;;;5.92;100.00
20620;BME280;10469;42.720;23.252;2024-02-14T17:45:02;95263.50;;;5.79;100.00
20620;BME280;10469;42.720;23.252;2024-02-14T17:47:31;95267.22;;;5.85;100.00
20620;BME280;10469;42.720;23.252;2024-02-14T17:50:00;95272.50;;;5.78;100.00
20620;BME280;10469;42.720;23.252;2024-02-14T17:52:28;95264.72;;;5.77;100.00
20620;BME280;10469;42.720;23.252;2024-02-14T17:54:54;95267.38;;;5.77;100.00
20620;BME280;10469;42.720;23.252;2024-02-14T17:57:20;95268.84;;;5.79;100.00
20620;BME280;10469;42.720;23.252;2024-02-14T17:59:48;95268.75;;;5.66;100.00
20620;BME280;10469;42.720;23.252;2024-02-14T18:02:14;95261.09;;;5.50;100.00
20620;BME280;10469;42.720;23.252;2024-02-14T18:04:40;95266.25;;;5.58;100.00
20620;BME280;10469;42.720;23.252;2024-02-14T18:07:06;95264.44;;;5.31;100.00
20620;BME280;10469;42.720;23.252;2024-02-14T18:09:33;95269.84;;;5.44;100.00
20620;BME280;10469;42.720;23.252;2024-02-14T18:11:59;95269.00;;;5.43;100.00
20620;BME280;10469;42.720;23.252;2024-02-14T18:14:25;95269.44;;;5.47;100.00
20620;BME280;10469;42.720;23.252;2024-02-14T18:16:53;95275.66;;;5.54;100.00
20620;BME280;10469;42.720;23.252;2024-02-14T18:19:19;95270.28;;;5.47;100.00
20620;BME280;10469;42.720;23.252;2024-02-14T18:21:44;95270.50;;;5.52;100.00
20620;BME280;10469;42.720;23.252;2024-02-14T18:24:11;95276.00;;;5.44;100.00
20620;BME280;10469;42.720;23.252;2024-02-14T18:26:41;95278.31;;;5.54;100.00
20620;BME280;10469;42.720;23.252;2024-02-14T18:29:07;95271.22;;;5.33;100.00
20620;BME280;10469;42.720;23.252;2024-02-14T18:31:33;95281.63;;;5.28;100.00
20620;BME280;10469;42.720;23.252;2024-02-14T18:34:13;95286.59;;;5.38;100.00
20620;BME280;10469;42.720;23.252;2024-02-14T18:36:40;95266.41;;;5.22;100.00
20620;BME280;10469;42.720;23.252;2024-02-14T18:39:05;95281.03;;;5.33;100.00
20620;BME280;10469;42.720;23.252;2024-02-14T18:41:31;95284.88;;;5.30;100.00
20620;BME280;10469;42.720;23.252;2024-02-14T18:44:00;95284.72;;;5.32;100.00
20620;BME280;10469;42.720;23.252;2024-02-14T18:46:29;95286.50;;;5.24;100.00
20620;BME280;10469;42.720;23.252;2024-02-14T18:48:55;95277.25;;;5.20;100.00
20620;BME280;10469;42.720;23.252;2024-02-14T18:51:21;95286.72;;;5.29;100.00
20620;BME280;10469;42.720;23.252;2024-02-14T18:53:47;95265.72;;;5.07;100.00
20620;BME280;10469;42.720;23.252;2024-02-14T18:56:15;95283.59;;;5.19;100.00
20620;BME280;10469;42.720;23.252;2024-02-14T18:58:43;95287.50;;;5.23;100.00
20620;BME280;10469;42.720;23.252;2024-02-14T19:01:20;95292.84;;;5.23;100.00
20620;BME280;10469;42.720;23.252;2024-02-14T19:03:46;95286.00;;;5.14;100.00
20620;BME280;10469;42.720;23.252;2024-02-14T19:06:12;95293.41;;;5.19;100.00
20620;BME280;10469;42.720;23.252;2024-02-14T19:08:39;95298.03;;;5.10;100.00
20620;BME280;10469;42.720;23.252;2024-02-14T19:11:05;95291.00;;;5.24;100.00
20620;BME280;10469;42.720;23.252;2024-02-14T19:13:31;95307.91;;;5.16;100.00
20620;BME280;10469;42.720;23.252;2024-02-14T19:15:57;95301.53;;;5.11;100.00
20620;BME280;10469;42.720;23.252;2024-02-14T19:18:23;95297.03;;;5.11;100.00
20620;BME280;10469;42.720;23.252;2024-02-14T19:20:48;95299.44;;;5.06;100.00
20620;BME280;10469;42.720;23.252;2024-02-14T19:23:15;95309.19;;;4.77;100.00
20620;BME280;10469;42.720;23.252;2024-02-14T19:25:41;95312.22;;;4.74;100.00
20620;BME280;10469;42.720;23.252;2024-02-14T19:28:07;95294.59;;;4.67;100.00
20620;BME280;10469;42.720;23.252;2024-02-14T19:30:35;95305.72;;;4.77;100.00
20620;BME280;10469;42.720;23.252;2024-02-14T19:33:03;95318.50;;;4.88;100.00
20620;BME280;10469;42.720;23.252;2024-02-14T19:35:30;95325.09;;;4.92;100.00
20620;BME280;10469;42.720;23.252;2024-02-14T19:37:56;95304.44;;;4.94;100.00
20620;BME280;10469;42.720;23.252;2024-02-14T19:40:22;95308.84;;;5.09;100.00
20620;BME280;10469;42.720;23.252;2024-02-14T19:42:48;95309.38;;;4.97;100.00
20620;BME280;10469;42.720;23.252;2024-02-14T19:45:14;95307.78;;;5.03;100.00
20620;BME280;10469;42.720;23.252;2024-02-14T19:47:42;95303.09;;;5.05;100.00
20620;BME280;10469;42.720;23.252;2024-02-14T19:50:10;95317.66;;;4.88;100.00
20620;BME280;10469;42.720;23.252;2024-02-14T19:52:38;95320.19;;;4.96;100.00
20620;BME280;10469;42.720;23.252;2024-02-14T19:55:05;95319.78;;;4.92;100.00
20620;BME280;10469;42.720;23.252;2024-02-14T19:57:31;95309.41;;;4.76;100.00
20620;BME280;10469;42.720;23.252;2024-02-14T20:00:00;95312.63;;;4.71;100.00
20620;BME280;10469;42.720;23.252;2024-02-14T20:02:28;95312.91;;;4.62;100.00
20620;BME280;10469;42.720;23.252;2024-02-14T20:04:55;95307.31;;;4.35;100.00
20620;BME280;10469;42.720;23.252;2024-02-14T20:07:21;95289.16;;;4.53;100.00
20620;BME280;10469;42.720;23.252;2024-02-14T20:09:48;95304.25;;;4.53;100.00
20620;BME280;10469;42.720;23.252;2024-02-14T20:12:16;95279.06;;;4.27;100.00
20620;BME280;10469;42.720;23.252;2024-02-14T20:14:43;95285.72;;;4.38;100.00
20620;BME280;10469;42.720;23.252;2024-02-14T20:17:10;95294.28;;;4.40;100.00
20620;BME280;10469;42.720;23.252;2024-02-14T20:19:40;95301.72;;;4.45;100.00
20620;BME280;10469;42.720;23.252;2024-02-14T20:22:12;95308.41;;;4.41;100.00
20620;BME280;10469;42.720;23.252;2024-02-14T20:24:41;95297.97;;;4.39;100.00
20620;BME280;10469;42.720;23.252;2024-02-14T20:27:07;95307.78;;;4.39;100.00
20620;BME280;10469;42.720;23.252;2024-02-14T20:29:34;95297.47;;;4.29;100.00
20620;BME280;10469;42.720;23.252;2024-02-14T20:32:00;95317.56;;;4.38;100.00
20620;BME280;10469;42.720;23.252;2024-02-14T20:34:30;95311.13;;;4.47;100.00
20620;BME280;10469;42.720;23.252;2024-02-14T20:36:59;95309.41;;;4.40;100.00
20620;BME280;10469;42.720;23.252;2024-02-14T20:39:25;95305.06;;;4.32;100.00
20620;BME280;10469;42.720;23.252;2024-02-14T20:41:52;95301.44;;;4.40;100.00
20620;BME280;10469;42.720;23.252;2024-02-14T20:44:20;95305.63;;;4.27;100.00
20620;BME280;10469;42.720;23.252;2024-02-14T20:46:46;95301.88;;;4.22;100.00
20620;BME280;10469;42.720;23.252;2024-02-14T20:49:17;95307.25;;;4.28;100.00
20620;BME280;10469;42.720;23.252;2024-02-14T20:51:43;95309.91;;;4.28;100.00
20620;BME280;10469;42.720;23.252;2024-02-14T20:54:17;95316.97;;;4.21;100.00
20620;BME280;10469;42.720;23.252;2024-02-14T20:56:43;95311.84;;;4.20;100.00
20620;BME280;10469;42.720;23.252;2024-02-14T20:59:09;95296.50;;;4.00;100.00
20620;BME280;10469;42.720;23.252;2024-02-14T21:01:35;95311.19;;;4.18;100.00
20620;BME280;10469;42.720;23.252;2024-02-14T21:04:01;95301.88;;;4.22;100.00
20620;BME280;10469;42.720;23.252;2024-02-14T21:06:27;95299.66;;;4.25;100.00
20620;BME280;10469;42.720;23.252;2024-02-14T21:08:52;95290.19;;;4.01;100.00
20620;BME280;10469;42.720;23.252;2024-02-14T21:11:19;95303.34;;;4.10;100.00
20620;BME280;10469;42.720;23.252;2024-02-14T21:13:44;95315.69;;;4.17;100.00
20620;BME280;10469;42.720;23.252;2024-02-14T21:16:10;95316.59;;;4.24;100.00
20620;BME280;10469;42.720;23.252;2024-02-14T21:18:36;95317.63;;;4.23;100.00
20620;BME280;10469;42.720;23.252;2024-02-14T21:21:02;95318.00;;;4.06;100.00
20620;BME280;10469;42.720;23.252;2024-02-14T21:23:28;95313.16;;;4.09;100.00
20620;BME280;10469;42.720;23.252;2024-02-14T21:25:54;95313.22;;;4.16;100.00
20620;BME280;10469;42.720;23.252;2024-02-14T21:28:20;95302.63;;;4.01;100.00
20620;BME280;10469;42.720;23.252;2024-02-14T21:30:49;95314.97;;;4.09;100.00
20620;BME280;10469;42.720;23.252;2024-02-14T21:33:15;95313.44;;;3.99;100.00
20620;BME280;10469;42.720;23.252;2024-02-14T21:35:42;95319.75;;;3.98;100.00
20620;BME280;10469;42.720;23.252;2024-02-14T21:38:12;95319.81;;;4.05;100.00
20620;BME280;10469;42.720;23.252;2024-02-14T21:40:43;95331.72;;;4.09;100.00
20620;BME280;10469;42.720;23.252;2024-02-14T21:43:09;95324.31;;;4.19;100.00
20620;BME280;10469;42.720;23.252;2024-02-14T21:45:35;95315.69;;;4.17;100.00
20620;BME280;10469;42.720;23.252;2024-02-14T21:48:02;95302.00;;;3.99;100.00
20620;BME280;10469;42.720;23.252;2024-02-14T21:50:29;95314.41;;;4.13;100.00
20620;BME280;10469;42.720;23.252;2024-02-14T22:46:11;95326.19;;;3.89;100.00
20620;BME280;10469;42.720;23.252;2024-02-14T22:48:37;95324.06;;;3.85;100.00
20620;BME280;10469;42.720;23.252;2024-02-14T22:51:03;95329.25;;;3.93;100.00
20620;BME280;10469;42.720;23.252;2024-02-14T22:53:30;95327.09;;;3.82;100.00
20620;BME280;10469;42.720;23.252;2024-02-14T22:55:56;95319.75;;;3.84;100.00
20620;BME280;10469;42.720;23.252;2024-02-14T22:58:22;95325.44;;;3.66;100.00
20620;BME280;10469;42.720;23.252;2024-02-14T23:00:48;95323.50;;;3.74;100.00
20620;BME280;10469;42.720;23.252;2024-02-14T23:03:14;95320.59;;;3.69;100.00
20620;BME280;10469;42.720;23.252;2024-02-14T23:05:40;95324.88;;;3.70;100.00
20620;BME280;10469;42.720;23.252;2024-02-14T23:08:07;95323.06;;;3.71;100.00
20620;BME280;10469;42.720;23.252;2024-02-14T23:10:33;95326.53;;;3.57;100.00
20620;BME280;10469;42.720;23.252;2024-02-14T23:13:03;95318.09;;;3.53;100.00
20620;BME280;10469;42.720;23.252;2024-02-14T23:15:29;95317.41;;;3.59;100.00
20620;BME280;10469;42.720;23.252;2024-02-14T23:17:56;95320.41;;;3.56;100.00
20620;BME280;10469;42.720;23.252;2024-02-14T23:20:34;95322.59;;;3.52;100.00
20620;BME280;10469;42.720;23.252;2024-02-14T23:23:04;95324.69;;;3.57;100.00
20620;BME280;10469;42.720;23.252;2024-02-14T23:25:44;95331.22;;;3.55;100.00
20620;BME280;10469;42.720;23.252;2024-02-14T23:28:12;95335.13;;;3.44;100.00
20620;BME280;10469;42.720;23.252;2024-02-14T23:30:38;95300.91;;;3.34;100.00
20620;BME280;10469;42.720;23.252;2024-02-14T23:33:08;95322.78;;;3.51;100.00
20620;BME280;10469;42.720;23.252;2024-02-14T23:35:41;95329.09;;;3.50;100.00
20620;BME280;10469;42.720;23.252;2024-02-14T23:38:11;95322.13;;;3.49;100.00
20620;BME280;10469;42.720;23.252;2024-02-14T23:40:38;95319.34;;;3.27;100.00
20620;BME280;10469;42.720;23.252;2024-02-14T23:43:03;95320.00;;;3.30;100.00
20620;BME280;10469;42.720;23.252;2024-02-14T23:45:29;95326.22;;;3.37;100.00
20620;BME280;10469;42.720;23.252;2024-02-14T23:47:55;95319.44;;;3.19;100.00
20620;BME280;10469;42.720;23.252;2024-02-14T23:50:21;95319.56;;;3.26;100.00
20620;BME280;10469;42.720;23.252;2024-02-14T23:52:47;95333.28;;;3.30;100.00
20620;BME280;10469;42.720;23.252;2024-02-14T23:55:16;95323.13;;;3.33;100.00
20620;BME280;10469;42.720;23.252;2024-02-14T23:57:46;95301.34;;;3.08;100.00
